Brea, CA

4:09 PM PDT on September 19, 2014 (GMT -0700)
RAWS TONNER CANYON CA US | Change Station
CLOSE
Current Station
Personal Weather Station
Location: Brea, CA
Elevation: 1339 ft
Nearby Weather Stations

Elev 1339 ft 33.95 °N, 117.82 °W | Updated 1 hour ago

Clear
Clear
80 °F
Feels Like 81 °F
N
9
Wind Variable Wind from SSW
Gusts 20.0 mph

Today
High -- | Low -- °F
--% Chance of Precip.
Yesterday
High -- | Low -- °F
Precip. -- in
6:37 AM 6:52 PM
Waning Crescent, 16% visible
Pressure 29.81 in
Visibility 10.0 miles
Clouds Few 8000 ft
Heat Index 81 °F
Dew Point 61 °F
Humidity 53%
Rainfall 0.00 in
Snow Depth 0 in , 1 in , 0 in
UV 4 out of 12
Pollen 6.90 out of 12
Ozone Good
PM2.5 Good
Flu Activity Not available.
METAR KCNO 192253Z 25012G15KT 10SM FEW080 29/16 A2983 RMK AO2 SLP094 T02940156

More Conditions Fewer Conditions

Pressure 29.81 in
Visibility 10.0 miles
Clouds Few 8000 ft
Heat Index 81 °F
Dew Point 61 °F
Humidity 53%
Rainfall 0.00 in
Snow Depth 0 in , 1 in , 0 in
UV 4 out of 12
Pollen 6.90 out of 12
Ozone Good
PM2.5 Good
Flu Activity Not available.
METAR KCNO 192253Z 25012G15KT 10SM FEW080 29/16 A2983 RMK AO2 SLP094 T02940156

More Conditions Fewer Conditions

10-Day Weather Forecast

Almanac

Astronomy

Sep. 19, 2014 Rise Set
Actual Time 6:37 AM PDT 6:52 PM PDT
Civil Twilight 6:12 AM PDT 7:17 PM PDT
Nautical Twilight 5:43 AM PDT 7:46 PM PDT
Astronomical Twilight 5:13 AM PDT 8:15 PM PDT
Moon 2:35 AM PDT 4:15 PM PDT
Length of Visible Light 13h 04m
Length of Day
12h 14m
Tomorrow will be 2m 5s shorter.
Waning Crescent, 16% of the Moon is Illuminated
Today
Waning Crescent
Sep 24
New
Oct 1
First Quarter
Oct 8
Full
Oct 15
Last Quarter

Today's Extremes

State Highs State Lows

Community

WunderPhotos

Upload Photos

1,754,724 photos uploaded!

WunderBlogs® & News

By Dr. Jeff Masters
Director of Meteorology, Weather Underground
By Kari Strenfel
Meteorologist, Weather Underground
By Christopher C. Burt
Weather Historian, Weather Underground
September 19, 2014
September 19, 2014
September 19, 2014

Nearby

Air Quality

  Air Quality AQ Index Pollutant
Yesterday Good
PM10
Yesterday Good
OZONE
Current Good
PM2.5
Current Good
OZONE
Saturday Good
PM10
Saturday Good
OZONE
Saturday Good
CO
Saturday Good
NO2

Snow Depth

Station Depth Elevation
Summit Meadow 0 in 9122 ft
Leavitt Meadows 0 in 7200 ft
CSS Lab 1 in 6900 ft
Burnside Lake 0 in 8139 ft
Adin Mountain 1 in 6200 ft

Earthquake Activity

City Distance Mag. Time & Date
Aguanga, California 67 miles 2.5 1:38 AM PDT
2014-09-19
Minimum magnitude displayed is 2.5.

Coastal Water Temperatures

Place Temperature
Santa Monica Pier 71.1 °F
Los Angeles, CA 68.0 °F
La Jolla, CA 73.0 °F

Nearby Weather Stations